createdAt,value
2023-06-16T00:01:32.381Z,20.72
2023-06-16T00:04:00.974Z,20.76
2023-06-16T00:06:30.776Z,20.77
2023-06-16T00:08:59.391Z,20.81
2023-06-16T00:11:28.750Z,20.83
2023-06-16T00:13:57.238Z,20.88
2023-06-16T00:16:24.903Z,20.88
2023-06-16T00:18:54.777Z,20.82
2023-06-16T00:21:39.221Z,20.81
2023-06-16T00:24:07.475Z,20.84
2023-06-16T00:26:36.280Z,20.88
2023-06-16T00:29:04.579Z,21.07
2023-06-16T00:31:33.244Z,21.10
2023-06-16T00:34:01.001Z,20.99
2023-06-16T00:36:28.565Z,20.98
2023-06-16T00:38:57.029Z,21.01
2023-06-16T00:41:25.866Z,20.97
2023-06-16T00:43:54.488Z,20.94
2023-06-16T00:46:30.657Z,20.85
2023-06-16T00:48:58.337Z,20.75
2023-06-16T00:51:27.986Z,20.71
2023-06-16T00:53:56.044Z,20.73
2023-06-16T00:56:25.067Z,20.77
2023-06-16T00:58:54.499Z,20.79
2023-06-16T01:01:22.320Z,20.76
2023-06-16T01:03:52.824Z,20.75
2023-06-16T01:06:38.830Z,20.74
2023-06-16T01:09:23.036Z,20.77
2023-06-16T01:12:04.815Z,20.73
2023-06-16T01:14:54.585Z,20.72
2023-06-16T01:17:24.132Z,20.63
2023-06-16T01:20:00.735Z,20.61
2023-06-16T01:22:44.413Z,20.68
2023-06-16T01:25:15.285Z,20.72
2023-06-16T01:27:48.683Z,20.64
2023-06-16T01:30:17.718Z,20.65
2023-06-16T01:32:47.673Z,20.58
2023-06-16T01:35:16.310Z,20.70
2023-06-16T01:37:44.995Z,20.68
2023-06-16T01:40:14.072Z,20.66
2023-06-16T01:42:41.659Z,20.70
2023-06-16T01:45:09.601Z,20.76
2023-06-16T01:47:37.535Z,20.77
2023-06-16T01:50:05.590Z,20.74
2023-06-16T01:52:33.188Z,20.77
2023-06-16T01:55:00.912Z,20.75
2023-06-16T01:57:28.647Z,20.67
2023-06-16T02:00:10.301Z,20.65
2023-06-16T02:02:48.481Z,20.69
2023-06-16T02:05:18.213Z,20.66
2023-06-16T02:07:46.197Z,20.67
2023-06-16T02:10:14.338Z,20.68
2023-06-16T02:12:42.187Z,20.64
2023-06-16T02:15:09.960Z,20.65
2023-06-16T02:17:37.516Z,20.68
2023-06-16T02:20:08.494Z,20.69
2023-06-16T02:22:36.356Z,20.74
2023-06-16T02:25:04.503Z,20.75
2023-06-16T02:27:32.390Z,20.79
2023-06-16T02:30:00.153Z,20.81
2023-06-16T02:32:28.121Z,20.76
2023-06-16T02:34:57.409Z,20.90
2023-06-16T02:37:26.637Z,20.80
2023-06-16T02:39:55.686Z,20.79
2023-06-16T02:42:23.867Z,20.78
2023-06-16T02:44:51.323Z,20.74
2023-06-16T02:47:18.910Z,20.75
2023-06-16T02:49:47.323Z,20.64
2023-06-16T02:52:14.794Z,20.58
2023-06-16T02:54:42.680Z,20.59
2023-06-16T02:57:10.881Z,20.70
2023-06-16T02:59:42.905Z,20.45
2023-06-16T03:02:10.972Z,20.38
2023-06-16T03:04:38.585Z,20.49
2023-06-16T03:07:06.440Z,20.50
2023-06-16T03:09:34.463Z,20.50
2023-06-16T03:12:02.094Z,20.52
2023-06-16T03:14:30.788Z,20.36
2023-06-16T03:17:01.532Z,20.54
2023-06-16T03:19:29.385Z,20.50
2023-06-16T03:21:56.996Z,20.57
2023-06-16T03:24:26.292Z,20.54
2023-06-16T03:26:55.459Z,20.51
2023-06-16T03:29:24.682Z,20.56
2023-06-16T03:31:52.915Z,20.55
2023-06-16T03:34:25.132Z,20.55
2023-06-16T03:36:53.600Z,20.53
2023-06-16T03:39:21.725Z,20.55
2023-06-16T03:41:49.302Z,20.58
2023-06-16T03:44:17.148Z,20.56
2023-06-16T03:46:44.914Z,20.54
2023-06-16T03:49:13.364Z,20.61
2023-06-16T03:51:42.118Z,20.56
2023-06-16T03:54:10.541Z,20.59
2023-06-16T03:56:38.170Z,20.68
2023-06-16T03:59:07.066Z,20.73
2023-06-16T04:01:37.458Z,20.70
2023-06-16T04:04:09.452Z,20.78
2023-06-16T04:06:37.740Z,20.76
2023-06-16T04:09:06.464Z,20.71
2023-06-16T04:11:34.425Z,20.75
2023-06-16T04:14:02.115Z,20.76
2023-06-16T04:16:30.142Z,20.88
2023-06-16T04:18:57.904Z,20.81
2023-06-16T04:21:25.771Z,20.80
2023-06-16T04:23:53.578Z,20.74
2023-06-16T04:26:23.499Z,20.87
2023-06-16T04:28:54.638Z,20.88
2023-06-16T04:31:29.430Z,20.97
2023-06-16T04:33:59.280Z,21.12
2023-06-16T04:36:30.903Z,21.26
2023-06-16T04:39:00.841Z,21.25
2023-06-16T04:41:28.777Z,21.21
2023-06-16T04:43:56.951Z,21.12
2023-06-16T04:46:25.080Z,21.36
2023-06-16T04:48:52.971Z,21.40
2023-06-16T04:51:21.558Z,21.46
2023-06-16T04:53:49.442Z,21.53
2023-06-16T04:56:17.257Z,21.51
2023-06-16T04:58:45.597Z,21.65
2023-06-16T05:01:13.189Z,21.74
2023-06-16T05:03:41.060Z,21.77
2023-06-16T05:06:08.642Z,21.81
2023-06-16T05:08:36.070Z,21.80
2023-06-16T05:11:03.820Z,21.90
2023-06-16T05:13:31.604Z,21.97
2023-06-16T05:15:59.220Z,21.90
2023-06-16T05:18:27.091Z,22.10
2023-06-16T05:20:54.573Z,22.08
2023-06-16T05:23:22.170Z,22.16
2023-06-16T05:25:50.025Z,22.17
2023-06-16T05:28:18.681Z,22.25
2023-06-16T05:30:46.444Z,22.26
2023-06-16T05:33:14.635Z,22.17
2023-06-16T05:35:42.557Z,22.15
2023-06-16T05:38:11.551Z,22.24
2023-06-16T05:40:39.434Z,22.37
2023-06-16T05:43:06.940Z,22.41
2023-06-16T05:45:34.735Z,22.46
2023-06-16T05:48:02.567Z,22.46
2023-06-16T05:50:30.457Z,22.51
2023-06-16T05:52:57.947Z,22.57
2023-06-16T05:55:25.790Z,22.64
2023-06-16T05:57:54.067Z,22.59
2023-06-16T06:00:22.205Z,22.76
2023-06-16T06:02:50.899Z,22.77
2023-06-16T06:05:19.606Z,22.87
2023-06-16T06:07:47.070Z,22.88
2023-06-16T06:10:15.529Z,22.88
2023-06-16T06:12:43.082Z,22.86
2023-06-16T06:15:11.583Z,22.80
2023-06-16T06:17:40.789Z,22.85
2023-06-16T06:20:09.182Z,22.77
2023-06-16T06:22:36.670Z,22.73
2023-06-16T06:25:06.858Z,22.78
2023-06-16T06:27:34.349Z,22.80
2023-06-16T06:30:02.135Z,22.89
2023-06-16T06:32:31.140Z,22.59
2023-06-16T06:34:58.809Z,22.61
2023-06-16T06:37:31.714Z,22.56
2023-06-16T06:39:59.806Z,22.64
2023-06-16T06:42:28.239Z,22.58
2023-06-16T06:44:56.179Z,22.50
2023-06-16T06:47:23.938Z,22.64
2023-06-16T06:49:51.869Z,22.69
2023-06-16T06:52:19.353Z,22.61
2023-06-16T06:54:47.147Z,22.63
2023-06-16T06:57:15.187Z,22.56
2023-06-16T06:59:43.224Z,22.70
2023-06-16T07:02:11.853Z,22.78
2023-06-16T07:04:40.865Z,22.91
2023-06-16T07:07:09.251Z,22.99
2023-06-16T07:09:36.968Z,23.07
2023-06-16T07:12:04.684Z,23.10
2023-06-16T07:14:32.236Z,23.29
2023-06-16T07:17:01.202Z,23.40
2023-06-16T07:19:28.668Z,23.21
2023-06-16T07:21:57.899Z,23.25
2023-06-16T07:24:25.795Z,23.15
2023-06-16T07:26:53.325Z,23.27
2023-06-16T07:29:21.624Z,23.24
2023-06-16T07:31:49.429Z,23.35
2023-06-16T07:34:16.959Z,23.45
2023-06-16T07:36:44.716Z,23.29
2023-06-16T07:39:12.863Z,23.44
2023-06-16T07:41:40.376Z,23.44
2023-06-16T07:44:07.846Z,23.60
2023-06-16T07:46:35.831Z,23.80
2023-06-16T07:49:03.399Z,23.97
2023-06-16T07:51:31.029Z,24.18
2023-06-16T07:53:58.771Z,24.19
2023-06-16T07:56:26.228Z,24.33
2023-06-16T07:58:53.698Z,24.45
2023-06-16T08:01:21.755Z,24.73
2023-06-16T08:03:50.255Z,24.92
2023-06-16T08:06:18.253Z,25.02
2023-06-16T08:08:45.880Z,25.22
2023-06-16T08:11:13.676Z,25.23
2023-06-16T08:13:41.254Z,25.36
2023-06-16T08:16:08.834Z,25.60
2023-06-16T08:18:36.643Z,25.59
2023-06-16T08:21:08.059Z,25.63
2023-06-16T08:23:36.699Z,25.71
2023-06-16T08:26:06.130Z,25.81
2023-06-16T08:28:33.580Z,25.92
2023-06-16T08:31:01.579Z,25.95
2023-06-16T08:33:29.185Z,26.07
2023-06-16T08:35:57.018Z,26.19
2023-06-16T08:38:25.136Z,26.44
2023-06-16T08:40:52.670Z,26.41
2023-06-16T08:43:23.188Z,26.41
2023-06-16T08:45:51.664Z,26.69
2023-06-16T08:48:19.185Z,26.72
2023-06-16T08:50:47.294Z,27.00
2023-06-16T08:53:16.566Z,27.11
2023-06-16T08:55:44.586Z,27.07
2023-06-16T08:58:13.469Z,27.20
2023-06-16T09:00:41.899Z,27.26
2023-06-16T09:03:09.588Z,27.42
2023-06-16T09:05:37.781Z,27.30
2023-06-16T09:08:06.658Z,27.26
2023-06-16T09:10:35.460Z,27.47
2023-06-16T09:13:03.846Z,27.39
2023-06-16T09:15:35.054Z,27.47
2023-06-16T09:18:08.171Z,27.64
2023-06-16T09:20:38.972Z,27.55
2023-06-16T09:23:06.402Z,27.69
2023-06-16T09:25:34.589Z,27.58
2023-06-16T09:28:10.687Z,27.48
2023-06-16T09:30:40.639Z,27.63
2023-06-16T09:33:10.634Z,27.80
2023-06-16T09:35:41.397Z,27.87
2023-06-16T09:38:11.030Z,27.79
2023-06-16T09:40:39.896Z,27.75
2023-06-16T09:43:09.831Z,27.68
2023-06-16T09:45:37.464Z,27.86
2023-06-16T09:48:06.745Z,27.88
2023-06-16T09:50:34.812Z,28.06
2023-06-16T09:53:05.457Z,27.95
2023-06-16T09:55:37.492Z,27.89
2023-06-16T09:58:04.963Z,27.80
2023-06-16T10:00:34.158Z,27.93
2023-06-16T10:03:03.764Z,27.90
2023-06-16T10:05:35.951Z,27.94
2023-06-16T10:08:08.529Z,27.91
2023-06-16T10:10:39.460Z,27.73
2023-06-16T10:13:07.909Z,27.88
2023-06-16T10:15:40.871Z,27.89
2023-06-16T10:18:12.205Z,27.58
2023-06-16T10:20:40.283Z,27.57
2023-06-16T10:23:08.989Z,27.45
2023-06-16T10:25:37.607Z,27.46
2023-06-16T10:28:09.231Z,27.42
2023-06-16T10:30:37.444Z,27.18
2023-06-16T10:33:21.460Z,26.98
2023-06-16T10:36:11.567Z,26.83
2023-06-16T10:38:43.868Z,26.98
2023-06-16T10:41:16.560Z,27.00
2023-06-16T10:43:44.293Z,27.07
2023-06-16T10:46:18.991Z,27.04
2023-06-16T10:49:05.535Z,26.98
2023-06-16T10:51:49.018Z,27.02
2023-06-16T10:54:34.504Z,26.89
2023-06-16T10:57:13.964Z,27.08
2023-06-16T10:59:57.959Z,27.15
2023-06-16T11:02:28.102Z,27.25
2023-06-16T11:05:10.984Z,27.38
2023-06-16T11:07:47.387Z,27.22
2023-06-16T11:10:19.951Z,27.38
2023-06-16T11:12:48.443Z,27.56
2023-06-16T11:15:15.917Z,27.73
2023-06-16T11:17:45.148Z,27.73
2023-06-16T11:20:14.315Z,27.76
2023-06-16T11:22:44.054Z,27.86
2023-06-16T11:25:11.733Z,27.81
2023-06-16T11:27:39.802Z,27.92
2023-06-16T11:30:08.872Z,28.01
2023-06-16T11:32:38.493Z,28.06
2023-06-16T11:35:07.090Z,28.00
2023-06-16T11:37:40.366Z,27.81
2023-06-16T11:40:08.861Z,28.08
2023-06-16T11:42:36.573Z,28.13
2023-06-16T11:45:04.609Z,28.19
2023-06-16T11:47:32.565Z,28.44
2023-06-16T11:50:00.047Z,28.43
2023-06-16T11:52:28.429Z,28.58
2023-06-16T11:54:58.437Z,28.63
2023-06-16T11:57:25.955Z,28.84
2023-06-16T11:59:53.526Z,28.86
2023-06-16T12:02:21.682Z,28.87
2023-06-16T12:04:49.456Z,28.80
2023-06-16T12:07:16.955Z,28.65
2023-06-16T12:09:44.391Z,28.70
2023-06-16T12:12:15.153Z,28.87
2023-06-16T12:14:42.796Z,28.96
2023-06-16T12:17:10.801Z,29.18
2023-06-16T12:19:41.395Z,29.14
2023-06-16T12:22:10.081Z,28.93
2023-06-16T12:24:40.106Z,29.00
2023-06-16T12:27:07.715Z,28.96
2023-06-16T12:29:35.348Z,29.05
2023-06-16T12:32:06.541Z,29.15
2023-06-16T12:34:36.796Z,29.12
2023-06-16T12:37:07.986Z,29.07
2023-06-16T12:39:35.765Z,29.04
2023-06-16T12:42:03.183Z,28.93
2023-06-16T12:44:50.030Z,29.02
2023-06-16T12:47:22.845Z,29.19
2023-06-16T12:49:55.631Z,29.02
2023-06-16T12:52:24.268Z,28.87
2023-06-16T12:54:53.188Z,28.92
2023-06-16T12:57:24.611Z,28.96
2023-06-16T12:59:52.298Z,28.95
2023-06-16T13:02:20.176Z,28.80
2023-06-16T13:04:48.231Z,28.87
2023-06-16T13:07:16.279Z,29.01
2023-06-16T13:09:43.806Z,29.24
2023-06-16T13:12:11.308Z,29.38
2023-06-16T13:14:39.068Z,29.25
2023-06-16T13:17:07.231Z,29.24
2023-06-16T13:19:34.669Z,29.35
2023-06-16T13:22:02.774Z,29.43
2023-06-16T13:24:31.043Z,29.58
2023-06-16T13:26:58.578Z,29.52
2023-06-16T13:29:27.973Z,29.48
2023-06-16T13:31:55.962Z,29.28
2023-06-16T13:34:23.376Z,29.41
2023-06-16T13:36:51.119Z,29.48
2023-06-16T13:39:18.576Z,29.52
2023-06-16T13:41:46.643Z,29.51
2023-06-16T13:44:14.571Z,29.49
2023-06-16T13:46:42.266Z,29.54
2023-06-16T13:49:12.837Z,29.56
2023-06-16T13:51:44.085Z,29.61
2023-06-16T13:54:12.134Z,29.50
2023-06-16T13:56:42.225Z,29.48
2023-06-16T13:59:10.077Z,29.27
2023-06-16T14:01:37.566Z,29.22
2023-06-16T14:04:05.255Z,29.09
2023-06-16T14:06:32.778Z,28.84
2023-06-16T14:09:00.400Z,28.89
2023-06-16T14:11:28.117Z,29.06
2023-06-16T14:13:55.589Z,29.13
2023-06-16T14:16:23.056Z,29.15
2023-06-16T14:18:53.236Z,29.17
2023-06-16T14:21:20.813Z,29.03
2023-06-16T14:23:49.564Z,29.02
2023-06-16T14:26:17.339Z,29.09
2023-06-16T14:28:44.869Z,29.09
2023-06-16T14:31:12.419Z,29.13
2023-06-16T14:33:40.179Z,29.22
2023-06-16T14:36:07.750Z,29.13
2023-06-16T14:38:35.222Z,29.12
2023-06-16T14:41:02.969Z,28.99
2023-06-16T14:43:30.393Z,29.23
2023-06-16T14:45:58.144Z,29.25
2023-06-16T14:48:25.940Z,28.98
2023-06-16T14:50:53.412Z,28.89
2023-06-16T14:53:21.193Z,29.00
2023-06-16T14:55:48.959Z,28.98
2023-06-16T14:58:16.543Z,28.77
2023-06-16T15:00:44.093Z,28.75
2023-06-16T15:03:11.929Z,28.91
2023-06-16T15:05:39.717Z,29.02
2023-06-16T15:08:07.208Z,29.02
2023-06-16T15:10:34.990Z,29.01
2023-06-16T15:13:02.621Z,28.76
2023-06-16T15:15:30.086Z,28.79
2023-06-16T15:17:57.969Z,28.81
2023-06-16T15:20:25.726Z,28.82
2023-06-16T15:22:53.127Z,28.77
2023-06-16T15:25:23.123Z,28.82
2023-06-16T15:27:59.749Z,28.71
2023-06-16T15:30:35.060Z,28.85
2023-06-16T15:33:02.615Z,28.84
2023-06-16T15:35:30.456Z,28.68
2023-06-16T15:37:58.240Z,28.57
2023-06-16T15:40:25.862Z,28.49
2023-06-16T15:43:01.815Z,28.63
2023-06-16T15:45:29.534Z,28.53
2023-06-16T15:47:57.550Z,28.64
2023-06-16T15:50:26.431Z,28.60
2023-06-16T15:52:54.190Z,28.43
2023-06-16T15:55:21.863Z,28.39
2023-06-16T15:57:49.624Z,28.30
2023-06-16T16:00:17.745Z,28.20
2023-06-16T16:02:46.098Z,28.12
2023-06-16T16:05:15.928Z,27.94
2023-06-16T16:07:43.650Z,27.87
2023-06-16T16:10:11.416Z,27.87
2023-06-16T16:12:40.059Z,27.90
2023-06-16T16:15:09.570Z,27.94
2023-06-16T16:17:38.343Z,27.98
2023-06-16T16:20:07.464Z,27.76
2023-06-16T16:22:34.925Z,27.74
2023-06-16T16:25:02.826Z,27.83
2023-06-16T16:27:30.696Z,27.86
2023-06-16T16:29:58.271Z,27.75
2023-06-16T16:32:27.584Z,27.60
2023-06-16T16:34:55.402Z,27.67
2023-06-16T16:37:23.187Z,27.66
2023-06-16T16:39:51.289Z,27.78
2023-06-16T16:42:18.884Z,27.68
2023-06-16T16:44:47.173Z,27.67
2023-06-16T16:47:16.042Z,27.80
2023-06-16T16:49:43.772Z,27.59
2023-06-16T16:52:12.036Z,27.29
2023-06-16T16:54:39.766Z,27.14
2023-06-16T16:57:07.403Z,26.94
2023-06-16T16:59:35.044Z,26.88
2023-06-16T17:02:03.012Z,26.87
2023-06-16T17:04:31.216Z,26.71
2023-06-16T17:06:58.759Z,26.64
2023-06-16T17:09:26.494Z,26.35
2023-06-16T17:11:56.310Z,26.16
2023-06-16T17:14:25.445Z,25.96
2023-06-16T17:16:53.316Z,25.96
2023-06-16T17:19:21.060Z,25.60
2023-06-16T17:21:48.776Z,25.73
2023-06-16T17:24:17.045Z,25.55
2023-06-16T17:26:46.269Z,25.62
2023-06-16T17:29:16.034Z,25.53
2023-06-16T17:31:45.576Z,25.55
2023-06-16T17:34:13.134Z,25.75
2023-06-16T17:36:40.894Z,25.79
2023-06-16T17:39:08.356Z,25.75
2023-06-16T17:41:35.875Z,25.75
2023-06-16T17:44:06.646Z,25.53
2023-06-16T17:46:36.328Z,25.54
2023-06-16T17:49:05.480Z,25.65
2023-06-16T17:51:32.924Z,25.58
2023-06-16T17:54:00.426Z,25.51
2023-06-16T17:56:33.100Z,25.38
2023-06-16T17:59:01.841Z,25.45
2023-06-16T18:01:29.916Z,25.38
2023-06-16T18:03:57.684Z,25.36
2023-06-16T18:06:25.198Z,25.37
2023-06-16T18:08:52.628Z,25.37
2023-06-16T18:11:20.526Z,25.35
2023-06-16T18:13:47.976Z,25.45
2023-06-16T18:16:15.561Z,25.38
2023-06-16T18:18:43.331Z,25.28
2023-06-16T18:21:10.803Z,25.32
2023-06-16T18:23:38.316Z,25.24
2023-06-16T18:26:06.034Z,25.20
2023-06-16T18:28:34.278Z,25.15
2023-06-16T18:31:02.006Z,25.08
2023-06-16T18:33:31.276Z,25.05
2023-06-16T18:35:58.721Z,25.08
2023-06-16T18:38:26.207Z,24.86
2023-06-16T18:40:53.922Z,24.90
2023-06-16T18:43:25.494Z,24.77
2023-06-16T18:45:54.957Z,24.72
2023-06-16T18:48:22.686Z,24.63
2023-06-16T18:50:50.202Z,24.56
2023-06-16T18:53:18.020Z,24.43
2023-06-16T18:55:49.385Z,24.31
2023-06-16T18:58:17.794Z,24.27
2023-06-16T19:00:45.749Z,24.22
2023-06-16T19:03:13.309Z,24.15
2023-06-16T19:05:42.625Z,24.10
2023-06-16T19:08:12.289Z,24.04
2023-06-16T19:10:39.971Z,24.03
2023-06-16T19:13:09.534Z,23.98
2023-06-16T19:15:38.302Z,23.89
2023-06-16T19:18:05.871Z,23.82
2023-06-16T19:20:33.354Z,23.82
2023-06-16T19:23:01.252Z,23.78
2023-06-16T19:25:29.392Z,23.71
2023-06-16T19:27:56.792Z,23.68
2023-06-16T19:30:24.600Z,23.55
2023-06-16T19:32:52.207Z,23.54
2023-06-16T19:35:20.579Z,23.45
2023-06-16T19:37:48.487Z,23.55
2023-06-16T19:40:15.942Z,23.52
2023-06-16T19:42:43.382Z,23.50
2023-06-16T19:45:11.207Z,23.49
2023-06-16T19:47:38.946Z,23.41
2023-06-16T19:50:07.147Z,23.41
2023-06-16T19:52:34.945Z,23.42
2023-06-16T19:55:02.523Z,23.41
2023-06-16T19:57:30.305Z,23.29
2023-06-16T19:59:58.076Z,23.31
2023-06-16T20:02:27.152Z,23.46
2023-06-16T20:04:55.668Z,23.47
2023-06-16T20:07:23.949Z,23.27
2023-06-16T20:09:51.788Z,23.24
2023-06-16T20:12:19.653Z,23.23
2023-06-16T20:14:47.504Z,23.36
2023-06-16T20:17:15.320Z,23.32
2023-06-16T20:22:13.096Z,23.31
2023-06-16T20:24:40.636Z,23.28
2023-06-16T20:27:08.676Z,23.29
2023-06-16T20:29:36.130Z,23.25
2023-06-16T20:32:03.740Z,23.27
2023-06-16T20:34:31.438Z,23.34
2023-06-16T20:37:00.011Z,23.25
2023-06-16T20:39:27.487Z,23.16
2023-06-16T20:41:56.559Z,23.11
2023-06-16T20:44:24.027Z,23.06
2023-06-16T20:46:51.546Z,22.89
2023-06-16T20:49:20.174Z,22.94
2023-06-16T20:51:47.601Z,22.87
2023-06-16T20:54:15.029Z,22.77
2023-06-16T20:56:42.755Z,22.69
2023-06-16T20:59:10.345Z,22.75
2023-06-16T21:01:44.096Z,22.61
2023-06-16T21:04:12.880Z,22.56
2023-06-16T21:06:41.612Z,22.59
2023-06-16T21:09:11.641Z,22.61
2023-06-16T21:11:40.116Z,22.44
2023-06-16T21:14:08.058Z,22.37
2023-06-16T21:16:35.566Z,22.31
2023-06-16T21:19:03.923Z,22.37
2023-06-16T21:21:31.361Z,22.34
2023-06-16T21:24:01.366Z,22.29
2023-06-16T21:26:29.258Z,22.14
2023-06-16T21:28:56.707Z,22.20
2023-06-16T21:31:24.959Z,22.11
2023-06-16T21:33:52.657Z,22.05
2023-06-16T21:36:20.108Z,21.97
2023-06-16T21:38:54.630Z,21.90
2023-06-16T21:41:25.024Z,21.93
2023-06-16T21:43:52.615Z,21.78
2023-06-16T21:46:20.204Z,21.81
2023-06-16T21:48:50.077Z,21.76
2023-06-16T21:51:18.089Z,21.78
2023-06-16T21:53:45.540Z,21.81
2023-06-16T21:56:13.495Z,21.74
2023-06-16T21:58:41.063Z,21.71
2023-06-16T22:01:08.615Z,21.72
2023-06-16T22:03:36.348Z,21.66
2023-06-16T22:06:04.630Z,21.54
2023-06-16T22:08:32.155Z,21.57
2023-06-16T22:11:01.554Z,21.46
2023-06-16T22:13:30.020Z,21.46
2023-06-16T22:15:59.069Z,21.46
2023-06-16T22:18:26.842Z,21.52
2023-06-16T22:20:54.533Z,21.41
2023-06-16T22:23:22.017Z,21.36
2023-06-16T22:25:50.563Z,21.26
2023-06-16T22:28:18.099Z,21.18
2023-06-16T22:30:47.292Z,21.11
2023-06-16T22:33:15.145Z,21.12
2023-06-16T22:35:42.597Z,21.10
2023-06-16T22:38:10.144Z,21.15
2023-06-16T22:40:37.969Z,21.16
2023-06-16T22:43:05.465Z,21.03
2023-06-16T22:45:32.989Z,20.92
2023-06-16T22:48:02.272Z,20.79
2023-06-16T22:50:29.792Z,20.78
2023-06-16T22:52:58.332Z,20.84
2023-06-16T22:55:26.939Z,20.77
2023-06-16T22:57:54.368Z,20.80
2023-06-16T23:00:22.086Z,20.82
2023-06-16T23:02:50.301Z,20.76
2023-06-16T23:05:17.867Z,20.74
2023-06-16T23:07:46.314Z,20.60
2023-06-16T23:10:14.111Z,20.56
2023-06-16T23:12:41.676Z,20.61
2023-06-16T23:15:09.326Z,20.54
2023-06-16T23:17:37.130Z,20.49
2023-06-16T23:20:05.043Z,20.55
2023-06-16T23:22:34.058Z,20.46
2023-06-16T23:25:02.649Z,20.42
2023-06-16T23:27:30.160Z,20.25
2023-06-16T23:29:57.704Z,20.23
2023-06-16T23:32:25.740Z,20.27
2023-06-16T23:34:54.386Z,20.20
2023-06-16T23:37:22.521Z,20.12
2023-06-16T23:39:50.313Z,20.15
2023-06-16T23:42:18.019Z,20.19
2023-06-16T23:44:47.326Z,20.12
2023-06-16T23:47:15.177Z,20.13
2023-06-16T23:49:42.650Z,20.13
2023-06-16T23:52:10.089Z,20.26
2023-06-16T23:54:37.831Z,20.17
2023-06-16T23:57:05.742Z,20.16
2023-06-16T23:59:33.203Z,20.13
